createdAt,value
2023-04-22T00:02:29.671Z,11.37
2023-04-22T00:05:20.439Z,11.37
2023-04-22T00:08:09.089Z,11.33
2023-04-22T00:10:57.818Z,11.34
2023-04-22T00:13:46.269Z,11.28
2023-04-22T00:16:36.359Z,11.30
2023-04-22T00:19:25.109Z,11.30
2023-04-22T00:22:13.482Z,11.28
2023-04-22T00:25:01.888Z,11.23
2023-04-22T00:27:50.367Z,11.15
2023-04-22T00:30:38.772Z,11.24
2023-04-22T00:33:28.542Z,11.24
2023-04-22T00:36:16.948Z,11.24
2023-04-22T00:39:06.411Z,11.24
2023-04-22T00:41:55.288Z,11.08
2023-04-22T00:44:43.833Z,11.07
2023-04-22T00:47:32.700Z,11.01
2023-04-22T00:50:22.479Z,11.01
2023-04-22T00:53:10.930Z,11.01
2023-04-22T00:55:59.760Z,11.03
2023-04-22T00:58:48.315Z,11.06
2023-04-22T01:01:37.458Z,11.03
2023-04-22T01:04:25.945Z,11.01
2023-04-22T01:07:15.832Z,11.05
2023-04-22T01:10:07.476Z,11.01
2023-04-22T01:12:55.887Z,10.93
2023-04-22T01:15:44.531Z,10.93
2023-04-22T01:18:33.656Z,10.87
2023-04-22T01:21:22.856Z,10.88
2023-04-22T01:24:12.671Z,10.86
2023-04-22T01:27:02.146Z,10.79
2023-04-22T01:29:50.652Z,10.73
2023-04-22T01:32:40.610Z,10.77
2023-04-22T01:35:30.519Z,10.78
2023-04-22T01:38:19.147Z,10.78
2023-04-22T01:41:08.980Z,10.71
2023-04-22T01:43:59.134Z,10.64
2023-04-22T01:46:47.639Z,10.61
2023-04-22T01:49:36.184Z,10.63
2023-04-22T01:52:24.587Z,10.60
2023-04-22T01:55:13.294Z,10.58
2023-04-22T01:58:03.130Z,10.54
2023-04-22T02:00:51.600Z,10.50
2023-04-22T02:03:40.408Z,10.47
2023-04-22T02:06:29.359Z,10.46
2023-04-22T02:09:17.768Z,10.45
2023-04-22T02:12:06.410Z,10.44
2023-04-22T02:14:56.212Z,10.44
2023-04-22T02:17:44.897Z,10.46
2023-04-22T02:20:33.826Z,10.41
2023-04-22T02:23:22.342Z,10.35
2023-04-22T02:26:11.475Z,10.24
2023-04-22T02:28:59.903Z,10.16
2023-04-22T02:31:50.223Z,10.15
2023-04-22T02:34:38.743Z,10.11
2023-04-22T02:37:27.142Z,10.10
2023-04-22T02:40:16.599Z,10.16
2023-04-22T02:43:05.403Z,10.14
2023-04-22T02:45:53.918Z,10.14
2023-04-22T02:48:43.777Z,10.13
2023-04-22T02:51:32.876Z,10.16
2023-04-22T02:54:21.308Z,10.06
2023-04-22T02:57:09.792Z,10.08
2023-04-22T02:59:58.378Z,10.14
2023-04-22T03:02:46.971Z,10.15
2023-04-22T03:05:38.004Z,10.19
2023-04-22T03:08:26.657Z,10.20
2023-04-22T03:11:15.135Z,10.19
2023-04-22T03:14:03.839Z,10.07
2023-04-22T03:16:52.388Z,10.06
2023-04-22T03:19:41.383Z,10.03
2023-04-22T03:22:31.723Z,9.97
2023-04-22T03:25:22.433Z,9.96
2023-04-22T03:28:14.338Z,9.92
2023-04-22T03:31:02.775Z,9.85
2023-04-22T03:33:51.636Z,9.86
2023-04-22T03:36:46.791Z,9.77
2023-04-22T03:39:36.768Z,9.74
2023-04-22T03:42:25.990Z,9.74
2023-04-22T03:45:14.384Z,9.69
2023-04-22T03:48:07.477Z,9.64
2023-04-22T03:51:02.575Z,9.51
2023-04-22T03:53:54.575Z,9.42
2023-04-22T03:56:46.618Z,9.28
2023-04-22T03:59:35.218Z,9.32
2023-04-22T04:02:24.020Z,9.28
2023-04-22T04:05:12.772Z,9.33
2023-04-22T04:08:01.965Z,9.42
2023-04-22T04:10:50.655Z,9.44
2023-04-22T04:13:40.690Z,9.42
2023-04-22T04:16:48.996Z,9.36
2023-04-22T04:19:45.801Z,9.34
2023-04-22T04:22:35.262Z,9.27
2023-04-22T04:25:23.835Z,9.24
2023-04-22T04:28:12.856Z,9.17
2023-04-22T04:31:03.912Z,9.08
2023-04-22T04:33:54.008Z,9.00
2023-04-22T04:36:42.613Z,8.98
2023-04-22T04:39:39.179Z,9.03
2023-04-22T04:42:30.411Z,9.01
2023-04-22T04:45:23.994Z,9.00
2023-04-22T04:48:14.831Z,9.02
2023-04-22T04:51:09.479Z,9.04
2023-04-22T04:54:03.373Z,9.06
2023-04-22T04:56:57.614Z,9.11
2023-04-22T04:59:46.957Z,9.14
2023-04-22T05:02:36.425Z,9.09
2023-04-22T05:05:26.572Z,9.10
2023-04-22T05:08:15.232Z,9.12
2023-04-22T05:11:06.560Z,9.17
2023-04-22T05:13:55.410Z,9.19
2023-04-22T05:16:50.715Z,9.19
2023-04-22T05:19:39.976Z,9.19
2023-04-22T05:22:30.017Z,9.22
2023-04-22T05:25:18.502Z,9.25
2023-04-22T05:28:15.559Z,9.26
2023-04-22T05:31:10.408Z,9.25
2023-04-22T05:33:59.179Z,9.30
2023-04-22T05:36:47.581Z,9.32
2023-04-22T05:39:37.667Z,9.20
2023-04-22T05:42:29.595Z,9.29
2023-04-22T05:45:18.510Z,9.29
2023-04-22T05:48:07.284Z,9.36
2023-04-22T05:51:00.599Z,9.44
2023-04-22T05:53:51.106Z,9.43
2023-04-22T05:56:41.198Z,9.47
2023-04-22T05:59:29.637Z,9.57
2023-04-22T06:02:18.626Z,9.65
2023-04-22T06:05:08.473Z,9.70
2023-04-22T06:07:57.016Z,9.76
2023-04-22T06:10:45.738Z,9.78
2023-04-22T06:13:35.583Z,9.81
2023-04-22T06:16:24.238Z,9.87
2023-04-22T06:19:12.855Z,9.89
2023-04-22T06:22:01.453Z,9.92
2023-04-22T06:24:49.941Z,9.99
2023-04-22T06:27:38.894Z,10.06
2023-04-22T06:30:29.264Z,10.06
2023-04-22T06:33:17.770Z,10.04
2023-04-22T06:36:06.985Z,10.11
2023-04-22T06:38:56.950Z,10.16
2023-04-22T06:41:57.320Z,10.18
2023-04-22T06:45:13.013Z,10.20
2023-04-22T06:48:23.116Z,10.10
2023-04-22T06:51:33.746Z,10.25
2023-04-22T06:54:23.163Z,10.22
2023-04-22T06:57:12.524Z,10.41
2023-04-22T07:00:00.907Z,10.50
2023-04-22T07:02:49.364Z,10.56
2023-04-22T07:05:39.971Z,10.72
2023-04-22T07:08:29.985Z,10.80
2023-04-22T07:11:18.444Z,10.72
2023-04-22T07:14:23.469Z,10.87
2023-04-22T07:17:12.068Z,10.93
2023-04-22T07:20:00.453Z,11.04
2023-04-22T07:22:50.213Z,11.12
2023-04-22T07:25:38.662Z,11.16
2023-04-22T07:28:27.124Z,11.24
2023-04-22T07:31:15.853Z,11.34
2023-04-22T07:34:04.268Z,11.38
2023-04-22T07:36:53.581Z,11.56
2023-04-22T07:39:43.334Z,11.57
2023-04-22T07:42:31.756Z,11.63
2023-04-22T07:45:20.452Z,11.67
2023-04-22T07:48:08.824Z,11.71
2023-04-22T07:50:57.333Z,11.80
2023-04-22T07:53:45.738Z,11.86
2023-04-22T07:56:35.495Z,12.05
2023-04-22T07:59:23.880Z,12.17
2023-04-22T08:02:12.256Z,12.28
2023-04-22T08:05:00.753Z,12.27
2023-04-22T08:07:49.198Z,12.37
2023-04-22T08:10:37.584Z,12.52
2023-04-22T08:13:27.685Z,12.62
2023-04-22T08:16:16.262Z,12.55
2023-04-22T08:19:04.718Z,12.64
2023-04-22T08:21:53.608Z,12.62
2023-04-22T08:24:41.999Z,12.83
2023-04-22T08:27:31.418Z,12.89
2023-04-22T08:30:21.470Z,12.92
2023-04-22T08:33:09.871Z,13.03
2023-04-22T08:35:58.254Z,13.21
2023-04-22T08:38:47.830Z,13.35
2023-04-22T08:41:38.168Z,13.48
2023-04-22T08:44:26.958Z,13.60
2023-04-22T08:47:17.668Z,13.70
2023-04-22T08:50:08.638Z,13.83
2023-04-22T08:52:56.989Z,13.93
2023-04-22T08:55:46.404Z,14.06
2023-04-22T08:58:35.590Z,14.13
2023-04-22T09:01:24.253Z,14.22
2023-04-22T09:04:16.069Z,14.17
2023-04-22T09:07:04.964Z,14.35
2023-04-22T09:09:54.400Z,14.43
2023-04-22T09:12:42.755Z,14.49
2023-04-22T09:15:31.171Z,14.57
2023-04-22T09:18:19.596Z,14.69
2023-04-22T09:21:09.479Z,14.82
2023-04-22T09:24:00.605Z,15.04
2023-04-22T09:26:49.106Z,15.23
2023-04-22T09:29:37.829Z,15.24
2023-04-22T09:32:26.686Z,15.19
2023-04-22T09:35:15.071Z,15.25
2023-04-22T09:38:06.383Z,15.45
2023-04-22T09:40:54.735Z,15.64
2023-04-22T09:43:44.222Z,15.72
2023-04-22T09:46:34.950Z,15.79
2023-04-22T09:49:23.359Z,15.92
2023-04-22T09:52:12.091Z,16.06
2023-04-22T09:55:01.809Z,16.33
2023-04-22T09:57:52.892Z,16.52
2023-04-22T10:00:42.910Z,16.42
2023-04-22T10:03:31.813Z,16.46
2023-04-22T10:06:20.406Z,16.57
2023-04-22T10:09:09.753Z,16.79
2023-04-22T10:11:59.563Z,16.75
2023-04-22T10:14:47.899Z,16.60
2023-04-22T10:17:39.413Z,16.90
2023-04-22T10:20:29.238Z,16.91
2023-04-22T10:23:20.489Z,16.93
2023-04-22T10:26:08.856Z,17.13
2023-04-22T10:28:58.748Z,17.25
2023-04-22T10:31:53.069Z,17.45
2023-04-22T10:34:41.541Z,17.56
2023-04-22T10:37:30.833Z,17.47
2023-04-22T10:40:22.729Z,17.56
2023-04-22T10:43:13.997Z,17.70
2023-04-22T10:46:03.922Z,17.74
2023-04-22T10:48:52.322Z,17.68
2023-04-22T10:51:41.199Z,17.93
2023-04-22T10:55:01.564Z,18.12
2023-04-22T10:57:52.083Z,18.13
2023-04-22T11:00:53.392Z,18.07
2023-04-22T11:03:43.969Z,18.15
2023-04-22T11:06:32.517Z,18.11
2023-04-22T11:09:21.482Z,18.20
2023-04-22T11:12:49.615Z,18.28
2023-04-22T11:15:39.609Z,18.61
2023-04-22T11:18:28.196Z,18.61
2023-04-22T11:21:18.076Z,18.60
2023-04-22T11:24:11.002Z,18.63
2023-04-22T11:26:59.338Z,18.55
2023-04-22T11:30:01.222Z,18.59
2023-04-22T11:32:51.509Z,18.77
2023-04-22T11:35:39.863Z,18.71
2023-04-22T11:38:29.663Z,18.79
2023-04-22T11:41:22.126Z,18.95
2023-04-22T11:44:10.566Z,18.97
2023-04-22T11:46:58.945Z,19.04
2023-04-22T11:49:56.554Z,19.17
2023-04-22T11:52:50.632Z,19.23
2023-04-22T11:55:41.836Z,19.31
2023-04-22T11:58:30.261Z,19.27
2023-04-22T12:01:19.097Z,19.30
2023-04-22T12:04:08.621Z,19.28
2023-04-22T12:06:56.996Z,19.36
2023-04-22T12:09:45.412Z,19.46
2023-04-22T12:12:37.150Z,19.40
2023-04-22T12:15:25.632Z,19.44
2023-04-22T12:18:14.890Z,19.55
2023-04-22T12:21:09.969Z,19.67
2023-04-22T12:24:00.184Z,19.70
2023-04-22T12:26:48.603Z,19.77
2023-04-22T12:29:38.546Z,19.78
2023-04-22T12:32:27.913Z,19.94
2023-04-22T12:35:16.345Z,20.02
2023-04-22T12:38:04.722Z,20.10
2023-04-22T12:40:53.051Z,20.00
2023-04-22T12:43:41.405Z,20.11
2023-04-22T12:46:31.116Z,20.08
2023-04-22T12:49:19.509Z,20.00
2023-04-22T12:52:08.059Z,20.30
2023-04-22T12:54:56.437Z,20.25
2023-04-22T12:57:46.413Z,20.41
2023-04-22T13:00:34.794Z,20.53
2023-04-22T13:03:24.657Z,20.70
2023-04-22T13:06:13.173Z,20.55
2023-04-22T13:09:01.582Z,20.56
2023-04-22T13:11:50.035Z,20.63
2023-04-22T13:14:39.596Z,20.73
2023-04-22T13:17:28.127Z,20.98
2023-04-22T13:20:17.903Z,21.15
2023-04-22T13:23:06.274Z,21.36
2023-04-22T13:25:55.044Z,21.42
2023-04-22T13:28:43.409Z,21.09
2023-04-22T13:31:31.813Z,20.89
2023-04-22T13:34:20.190Z,20.88
2023-04-22T13:37:09.959Z,21.05
2023-04-22T13:39:58.357Z,21.18
2023-04-22T13:42:46.789Z,21.23
2023-04-22T13:45:35.153Z,21.18
2023-04-22T13:48:23.500Z,21.42
2023-04-22T13:51:11.816Z,21.45
2023-04-22T13:54:02.282Z,21.41
2023-04-22T13:56:51.056Z,21.62
2023-04-22T13:59:39.550Z,21.94
2023-04-22T14:02:28.133Z,22.20
2023-04-22T14:05:16.613Z,22.26
2023-04-22T14:08:04.994Z,21.97
2023-04-22T14:10:55.237Z,21.65
2023-04-22T14:13:45.095Z,21.88
2023-04-22T14:16:33.626Z,21.95
2023-04-22T14:19:24.261Z,21.89
2023-04-22T14:22:12.670Z,21.99
2023-04-22T14:25:01.769Z,22.17
2023-04-22T14:27:51.536Z,22.42
2023-04-22T14:30:40.208Z,22.61
2023-04-22T14:33:29.021Z,22.85
2023-04-22T14:36:18.601Z,23.03
2023-04-22T14:39:07.093Z,23.21
2023-04-22T14:41:56.933Z,22.84
2023-04-22T14:44:46.804Z,22.92
2023-04-22T14:47:35.192Z,23.03
2023-04-22T14:50:23.576Z,22.84
2023-04-22T14:53:11.979Z,22.49
2023-04-22T14:56:00.622Z,22.83
2023-04-22T14:58:48.976Z,22.96
2023-04-22T15:01:41.846Z,22.79
2023-04-22T15:04:30.290Z,23.09
2023-04-22T15:07:18.673Z,23.42
2023-04-22T15:10:07.926Z,23.75
2023-04-22T15:12:56.352Z,23.59
2023-04-22T15:15:45.442Z,23.74
2023-04-22T15:18:35.240Z,23.76
2023-04-22T15:21:23.609Z,23.82
2023-04-22T15:24:11.979Z,23.67
2023-04-22T15:27:00.781Z,23.62
2023-04-22T15:29:49.161Z,23.76
2023-04-22T15:32:39.088Z,23.64
2023-04-22T15:35:28.952Z,23.64
2023-04-22T15:38:17.605Z,23.53
2023-04-22T15:41:06.087Z,23.67
2023-04-22T15:43:54.482Z,23.84
2023-04-22T15:46:43.090Z,24.06
2023-04-22T15:49:31.482Z,23.80
2023-04-22T15:52:21.190Z,24.01
2023-04-22T15:55:10.128Z,24.24
2023-04-22T15:57:58.637Z,23.78
2023-04-22T16:00:47.051Z,23.72
2023-04-22T16:03:35.686Z,23.68
2023-04-22T16:06:24.163Z,23.84
2023-04-22T16:09:13.969Z,23.86
2023-04-22T16:12:02.497Z,23.89
2023-04-22T16:14:50.852Z,23.69
2023-04-22T16:17:39.279Z,23.83
2023-04-22T16:20:27.778Z,23.73
2023-04-22T16:23:16.366Z,23.82
2023-04-22T16:26:06.523Z,23.84
2023-04-22T16:28:55.338Z,23.79
2023-04-22T16:31:43.854Z,23.23
2023-04-22T16:34:32.182Z,23.19
2023-04-22T16:37:20.604Z,23.22
2023-04-22T16:40:09.849Z,22.74
2023-04-22T16:43:05.058Z,22.73
2023-04-22T16:45:53.399Z,22.56
2023-04-22T16:48:41.833Z,22.30
2023-04-22T16:51:30.180Z,22.33
2023-04-22T16:54:18.628Z,21.96
2023-04-22T16:57:08.225Z,21.73
2023-04-22T16:59:57.984Z,21.73
2023-04-22T17:02:46.626Z,21.71
2023-04-22T17:05:35.064Z,21.64
2023-04-22T17:08:23.490Z,21.78
2023-04-22T17:11:12.409Z,21.61
2023-04-22T17:14:00.773Z,21.56
2023-04-22T17:16:50.494Z,21.47
2023-04-22T17:19:39.055Z,21.43
2023-04-22T17:22:28.061Z,21.44
2023-04-22T17:25:16.435Z,21.45
2023-04-22T17:28:04.828Z,21.49
2023-04-22T17:30:53.199Z,21.40
2023-04-22T17:33:42.967Z,21.31
2023-04-22T17:36:31.718Z,21.27
2023-04-22T17:39:20.181Z,21.18
2023-04-22T17:42:09.309Z,21.16
2023-04-22T17:44:57.702Z,21.11
2023-04-22T17:47:47.624Z,21.10
2023-04-22T17:50:37.451Z,21.06
2023-04-22T17:53:25.738Z,21.03
2023-04-22T17:56:14.189Z,20.98
2023-04-22T17:59:02.573Z,20.92
2023-04-22T18:01:51.027Z,20.83
2023-04-22T18:04:39.422Z,20.73
2023-04-22T18:07:29.142Z,20.63
2023-04-22T18:10:17.563Z,20.56
2023-04-22T18:13:06.738Z,20.48
2023-04-22T18:15:55.195Z,20.38
2023-04-22T18:18:43.507Z,20.32
2023-04-22T18:21:32.690Z,20.25
2023-04-22T18:24:22.564Z,20.18
2023-04-22T18:27:11.017Z,20.09
2023-04-22T18:29:59.355Z,20.02
2023-04-22T18:32:47.821Z,19.93
2023-04-22T18:35:36.430Z,19.85
2023-04-22T18:38:24.814Z,19.77
2023-04-22T18:41:14.752Z,19.65
2023-04-22T18:44:03.109Z,19.53
2023-04-22T18:46:53.022Z,19.46
2023-04-22T18:49:41.386Z,19.36
2023-04-22T18:52:29.731Z,19.27
2023-04-22T18:55:18.078Z,19.13
2023-04-22T18:58:07.793Z,19.03
2023-04-22T19:00:56.320Z,18.95
2023-04-22T19:03:45.785Z,18.84
2023-04-22T19:06:34.247Z,18.77
2023-04-22T19:09:22.617Z,18.70
2023-04-22T19:12:14.686Z,18.65
2023-04-22T19:15:04.950Z,18.55
2023-04-22T19:17:53.322Z,18.47
2023-04-22T19:20:41.649Z,18.41
2023-04-22T19:23:30.085Z,18.34
2023-04-22T19:26:18.423Z,18.28
2023-04-22T19:29:06.845Z,18.18
2023-04-22T19:31:58.903Z,17.93
2023-04-22T19:34:48.103Z,17.44
2023-04-22T19:37:36.507Z,17.52
2023-04-22T19:40:24.820Z,17.60
2023-04-22T19:43:13.245Z,17.62
2023-04-22T19:46:01.603Z,17.60
2023-04-22T19:48:52.269Z,17.56
2023-04-22T19:51:41.024Z,17.29
2023-04-22T19:54:29.943Z,17.09
2023-04-22T19:57:18.456Z,17.19
2023-04-22T20:00:11.240Z,17.19
2023-04-22T20:03:04.240Z,17.11
2023-04-22T20:05:55.296Z,17.10
2023-04-22T20:08:43.817Z,17.01
2023-04-22T20:11:32.805Z,17.02
2023-04-22T20:14:21.389Z,16.98
2023-04-22T20:17:10.088Z,16.96
2023-04-22T20:19:58.730Z,16.94
2023-04-22T20:22:50.243Z,16.85
2023-04-22T20:25:40.717Z,16.82
2023-04-22T20:28:43.052Z,16.76
2023-04-22T20:31:32.258Z,16.75
2023-04-22T20:34:21.202Z,16.75
2023-04-22T20:37:12.386Z,16.71
2023-04-22T20:40:04.608Z,16.65
2023-04-22T20:42:53.081Z,16.63
2023-04-22T20:45:41.604Z,16.60
2023-04-22T20:48:30.289Z,16.43
2023-04-22T20:51:19.109Z,16.12
2023-04-22T20:54:14.670Z,15.76
2023-04-22T20:57:15.932Z,16.06
2023-04-22T21:00:05.745Z,16.15
2023-04-22T21:02:54.816Z,16.16
2023-04-22T21:05:45.897Z,16.13
2023-04-22T21:08:35.206Z,16.15
2023-04-22T21:11:24.323Z,16.04
2023-04-22T21:14:14.712Z,16.04
2023-04-22T21:17:06.062Z,16.09
2023-04-22T21:19:57.376Z,16.11
2023-04-22T21:22:47.573Z,16.13
2023-04-22T21:25:36.515Z,16.13
2023-04-22T21:28:25.416Z,16.08
2023-04-22T21:31:15.866Z,16.02
2023-04-22T21:34:06.572Z,15.91
2023-04-22T21:36:55.015Z,15.93
2023-04-22T21:39:43.500Z,15.80
2023-04-22T21:42:31.813Z,15.89
2023-04-22T21:45:20.233Z,15.92
2023-04-22T21:48:10.067Z,15.91
2023-04-22T21:50:58.389Z,15.93
2023-04-22T21:53:46.737Z,15.95
2023-04-22T21:56:35.893Z,15.93
2023-04-22T21:59:24.796Z,15.99
2023-04-22T22:02:13.280Z,15.98
2023-04-22T22:05:03.125Z,15.93
2023-04-22T22:07:52.940Z,15.95
2023-04-22T22:10:42.876Z,15.95
2023-04-22T22:13:31.192Z,15.94
2023-04-22T22:16:20.316Z,15.94
2023-04-22T22:19:11.227Z,15.90
2023-04-22T22:22:01.094Z,15.82
2023-04-22T22:24:49.681Z,15.81
2023-04-22T22:27:40.679Z,15.83
2023-04-22T22:30:30.004Z,15.81
2023-04-22T22:33:18.549Z,15.80
2023-04-22T22:36:07.215Z,15.76
2023-04-22T22:38:56.929Z,15.74
2023-04-22T22:41:45.285Z,15.65
2023-04-22T22:44:33.605Z,15.65
2023-04-22T22:47:21.853Z,15.67
2023-04-22T22:50:11.503Z,15.66
2023-04-22T22:53:00.614Z,15.67
2023-04-22T22:55:50.420Z,15.65
2023-04-22T22:58:40.757Z,15.62
2023-04-22T23:01:29.159Z,15.62
2023-04-22T23:04:17.894Z,15.57
2023-04-22T23:07:06.329Z,15.53
2023-04-22T23:09:54.621Z,15.43
2023-04-22T23:12:44.333Z,15.33
2023-04-22T23:15:32.650Z,15.35
2023-04-22T23:18:21.145Z,15.35
2023-04-22T23:21:09.570Z,15.37
2023-04-22T23:23:58.018Z,15.37
2023-04-22T23:26:46.916Z,15.35
2023-04-22T23:29:38.649Z,15.33
2023-04-22T23:32:27.644Z,15.31
2023-04-22T23:35:16.143Z,15.30
2023-04-22T23:38:05.398Z,15.29
2023-04-22T23:40:53.711Z,15.25
2023-04-22T23:43:42.129Z,15.14
2023-04-22T23:46:31.853Z,15.14
2023-04-22T23:49:20.470Z,15.05
2023-04-22T23:52:10.480Z,15.05
2023-04-22T23:54:59.446Z,15.02
2023-04-22T23:57:48.296Z,15.01
